Terminal Aerodrome Forecast
Issued by NWS Charleston, SC

Home | Current Version | Previous Version | Text Only | Print | Product List | Glossary On
Versions: 1 2 3 4 5 6 7 8 9 10 11 12 13 14 15 16 17 18 19 20 21 22 23 24 25 26 27
000
FTUS42 KCHS 301732
TAFSAV
TAF
KSAV 301732Z 3018/0118 23011G17KT P6SM SCT040
     FM302000 22010KT P6SM VCTS SCT035CB BKN060
      TEMPO 3021/3023 5SM -TSRA BKN035CB
     FM010000 23006KT P6SM FEW040 BKN200
     FM011400 26010KT P6SM SCT040=

USA.gov is the U.S. government's official web portal to all federal, state and local government web resources and services.